createdAt,value
2018-03-19T00:00:32.992Z,35.73
2018-03-19T00:03:04.785Z,35.66
2018-03-19T00:05:36.093Z,35.67
2018-03-19T00:08:08.084Z,35.92
2018-03-19T00:10:40.852Z,36.06
2018-03-19T00:13:12.916Z,36.06
2018-03-19T00:15:44.855Z,36.14
2018-03-19T00:18:17.709Z,36.09
2018-03-19T00:20:49.806Z,35.94
2018-03-19T00:23:21.630Z,35.79
2018-03-19T00:25:53.315Z,35.81
2018-03-19T00:28:26.494Z,36.18
2018-03-19T00:30:59.266Z,36.12
2018-03-19T00:33:31.843Z,35.88
2018-03-19T00:36:03.368Z,35.67
2018-03-19T00:38:35.182Z,35.73
2018-03-19T00:41:07.511Z,35.86
2018-03-19T00:43:39.605Z,35.87
2018-03-19T00:46:13.424Z,35.76
2018-03-19T00:48:45.617Z,35.57
2018-03-19T00:51:18.340Z,35.79
2018-03-19T00:53:53.898Z,35.76
2018-03-19T00:56:27.118Z,35.75
2018-03-19T00:58:59.522Z,35.79
2018-03-19T01:01:34.099Z,35.92
2018-03-19T01:04:06.655Z,36.14
2018-03-19T01:06:38.689Z,35.87
2018-03-19T01:09:11.436Z,36.09
2018-03-19T01:11:44.007Z,36.25
2018-03-19T01:14:15.545Z,36.47
2018-03-19T01:16:47.641Z,36.29
2018-03-19T01:19:20.199Z,36.50
2018-03-19T01:21:52.757Z,36.37
2018-03-19T01:24:35.656Z,36.33
2018-03-19T01:27:13.522Z,36.49
2018-03-19T01:29:44.853Z,36.56
2018-03-19T01:32:17.245Z,36.77
2018-03-19T01:34:49.002Z,36.79
2018-03-19T01:37:21.355Z,36.72
2018-03-19T01:39:53.409Z,36.95
2018-03-19T01:42:25.031Z,37.01
2018-03-19T01:44:57.336Z,36.91
2018-03-19T01:47:30.186Z,37.04
2018-03-19T01:50:02.318Z,37.16
2018-03-19T01:52:41.962Z,37.23
2018-03-19T01:55:13.645Z,37.22
2018-03-19T01:57:46.207Z,37.21
2018-03-19T02:00:19.738Z,37.38
2018-03-19T02:02:51.629Z,37.30
2018-03-19T02:05:24.043Z,37.16
2018-03-19T02:07:55.711Z,37.17
2018-03-19T02:10:27.805Z,36.99
2018-03-19T02:12:59.768Z,37.22
2018-03-19T02:15:31.782Z,37.17
2018-03-19T02:18:04.665Z,37.09
2018-03-19T02:20:36.246Z,37.25
2018-03-19T02:23:08.873Z,37.09
2018-03-19T02:25:40.612Z,37.15
2018-03-19T02:28:13.348Z,37.18
2018-03-19T02:30:46.175Z,37.30
2018-03-19T02:33:18.900Z,37.48
2018-03-19T02:35:50.619Z,37.46
2018-03-19T02:38:22.745Z,37.24
2018-03-19T02:40:54.928Z,37.42
2018-03-19T02:43:26.984Z,37.48
2018-03-19T02:45:59.785Z,37.61
2018-03-19T02:48:31.626Z,37.65
2018-03-19T02:51:03.358Z,37.77
2018-03-19T02:53:35.777Z,37.93
2018-03-19T02:56:08.181Z,37.75
2018-03-19T02:58:39.915Z,37.94
2018-03-19T03:01:11.691Z,38.05
2018-03-19T03:03:43.457Z,38.03
2018-03-19T03:06:15.051Z,37.94
2018-03-19T03:08:47.231Z,37.78
2018-03-19T03:11:20.392Z,37.97
2018-03-19T03:13:52.489Z,38.05
2018-03-19T03:16:31.262Z,37.91
2018-03-19T03:19:03.557Z,38.20
2018-03-19T03:21:41.835Z,37.90
2018-03-19T03:24:16.672Z,37.75
2018-03-19T03:26:48.468Z,37.86
2018-03-19T03:29:21.526Z,38.10
2018-03-19T03:31:53.323Z,38.06
2018-03-19T03:34:31.241Z,37.95
2018-03-19T03:37:02.468Z,38.06
2018-03-19T03:39:33.378Z,38.10
2018-03-19T03:42:04.752Z,38.26
2018-03-19T03:44:36.508Z,37.88
2018-03-19T03:47:08.286Z,38.09
2018-03-19T03:49:40.333Z,38.12
2018-03-19T03:52:12.104Z,38.14
2018-03-19T03:54:43.011Z,38.21
2018-03-19T03:57:14.827Z,38.46
2018-03-19T03:59:46.230Z,38.46
2018-03-19T04:02:19.865Z,38.66
2018-03-19T04:04:50.948Z,38.64
2018-03-19T04:07:23.307Z,38.71
2018-03-19T04:09:54.871Z,38.96
2018-03-19T04:12:26.187Z,38.96
2018-03-19T04:14:57.235Z,38.78
2018-03-19T04:17:30.048Z,39.06
2018-03-19T04:20:01.857Z,39.03
2018-03-19T04:22:33.024Z,39.09
2018-03-19T04:25:04.418Z,39.29
2018-03-19T04:27:47.749Z,39.37
2018-03-19T04:30:20.112Z,39.54
2018-03-19T04:32:51.444Z,39.71
2018-03-19T04:35:24.730Z,39.69
2018-03-19T04:37:57.345Z,39.67
2018-03-19T04:40:29.171Z,39.67
2018-03-19T04:43:01.256Z,39.71
2018-03-19T04:45:32.927Z,39.95
2018-03-19T04:48:03.865Z,39.84
2018-03-19T04:50:36.180Z,39.90
2018-03-19T04:53:07.612Z,39.82
2018-03-19T04:55:40.587Z,40.10
2018-03-19T04:58:11.516Z,40.02
2018-03-19T05:00:42.984Z,40.10
2018-03-19T05:03:23.328Z,40.38
2018-03-19T05:05:55.299Z,40.34
2018-03-19T05:08:26.073Z,40.58
2018-03-19T05:10:57.801Z,40.76
2018-03-19T05:13:30.005Z,40.86
2018-03-19T05:16:02.263Z,40.78
2018-03-19T05:18:34.360Z,40.71
2018-03-19T05:21:05.573Z,40.68
2018-03-19T05:23:37.199Z,40.93
2018-03-19T05:26:09.036Z,40.91
2018-03-19T05:28:40.214Z,41.06
2018-03-19T05:31:11.993Z,41.24
2018-03-19T05:33:43.298Z,41.26
2018-03-19T05:36:14.749Z,41.23
2018-03-19T05:38:47.525Z,41.41
2018-03-19T05:41:19.225Z,41.44
2018-03-19T05:43:50.499Z,41.34
2018-03-19T05:46:22.681Z,41.41
2018-03-19T05:48:53.903Z,41.15
2018-03-19T05:51:25.690Z,41.50
2018-03-19T05:53:58.271Z,41.62
2018-03-19T05:56:30.632Z,41.48
2018-03-19T05:59:03.293Z,41.43
2018-03-19T06:01:36.642Z,41.47
2018-03-19T06:04:08.835Z,41.53
2018-03-19T06:06:43.967Z,41.24
2018-03-19T06:09:16.019Z,41.47
2018-03-19T06:11:50.099Z,41.26
2018-03-19T06:14:24.773Z,41.37
2018-03-19T06:16:58.982Z,41.10
2018-03-19T06:19:34.214Z,41.41
2018-03-19T06:22:08.239Z,41.11
2018-03-19T06:24:46.727Z,41.30
2018-03-19T06:27:18.387Z,41.17
2018-03-19T06:29:50.587Z,40.88
2018-03-19T06:32:24.031Z,40.79
2018-03-19T06:34:56.801Z,40.87
2018-03-19T06:37:29.571Z,40.93
2018-03-19T06:40:01.852Z,40.70
2018-03-19T06:42:35.201Z,40.60
2018-03-19T06:45:13.168Z,40.17
2018-03-19T06:47:46.829Z,40.58
2018-03-19T06:50:21.991Z,40.47
2018-03-19T06:52:54.900Z,39.87
2018-03-19T06:55:27.699Z,40.05
2018-03-19T06:58:00.377Z,39.71
2018-03-19T07:00:44.615Z,39.77
2018-03-19T07:03:22.260Z,39.86
2018-03-19T07:05:55.140Z,39.75
2018-03-19T07:08:29.701Z,40.00
2018-03-19T07:11:10.554Z,40.07
2018-03-19T07:13:42.189Z,39.67
2018-03-19T07:16:14.487Z,40.11
2018-03-19T07:18:58.167Z,39.57
2018-03-19T07:21:36.407Z,38.90
2018-03-19T07:24:12.837Z,38.30
2018-03-19T07:26:46.367Z,38.18
2018-03-19T07:29:20.793Z,37.12
2018-03-19T07:31:54.610Z,36.31
2018-03-19T07:34:29.670Z,35.58
2018-03-19T07:37:05.607Z,35.36
2018-03-19T07:39:39.980Z,34.75
2018-03-19T07:42:16.666Z,34.21
2018-03-19T07:44:49.347Z,33.75
2018-03-19T07:47:22.223Z,33.55
2018-03-19T07:49:56.666Z,34.28
2018-03-19T07:55:22.044Z,33.27
2018-03-19T07:57:53.981Z,33.42
2018-03-19T08:00:38.927Z,33.59
2018-03-19T08:03:11.257Z,33.56
2018-03-19T08:05:43.161Z,33.97
2018-03-19T08:08:18.049Z,33.92
2018-03-19T08:10:51.890Z,34.68
2018-03-19T08:13:23.928Z,34.22
2018-03-19T08:15:56.516Z,34.03
2018-03-19T08:18:29.824Z,33.70
2018-03-19T08:21:04.998Z,33.97
2018-03-19T08:23:38.149Z,33.56
2018-03-19T08:26:11.126Z,33.12
2018-03-19T08:28:44.715Z,33.29
2018-03-19T08:31:18.539Z,32.50
2018-03-19T08:33:50.456Z,33.25
2018-03-19T08:36:23.731Z,33.69
2018-03-19T08:38:56.031Z,33.65
2018-03-19T08:41:29.373Z,32.82
2018-03-19T08:44:01.736Z,33.40
2018-03-19T08:46:33.741Z,33.35
2018-03-19T08:49:06.504Z,33.52
2018-03-19T08:51:39.206Z,32.99
2018-03-19T08:54:11.070Z,32.72
2018-03-19T08:56:42.942Z,32.79
2018-03-19T08:59:18.965Z,32.65
2018-03-19T09:01:52.024Z,33.23
2018-03-19T09:04:24.924Z,32.42
2018-03-19T09:06:58.192Z,32.46
2018-03-19T09:09:32.050Z,32.75
2018-03-19T09:12:12.039Z,32.12
2018-03-19T09:14:44.551Z,32.33
2018-03-19T09:17:24.610Z,31.53
2018-03-19T09:20:00.448Z,31.53
2018-03-19T09:22:36.113Z,31.43
2018-03-19T09:27:44.590Z,31.36
2018-03-19T09:30:19.664Z,31.22
2018-03-19T09:32:52.241Z,31.29
2018-03-19T09:35:25.729Z,31.07
2018-03-19T09:37:57.316Z,30.56
2018-03-19T09:40:38.017Z,29.76
2018-03-19T09:43:14.445Z,30.33
2018-03-19T09:45:46.283Z,30.52
2018-03-19T09:48:18.462Z,30.32
2018-03-19T09:51:01.926Z,30.88
2018-03-19T09:53:40.788Z,30.14
2018-03-19T09:56:15.532Z,29.80
2018-03-19T09:58:58.387Z,28.77
2018-03-19T10:01:32.537Z,28.84
2018-03-19T10:04:08.475Z,30.05
2018-03-19T10:06:44.987Z,29.45
2018-03-19T10:09:16.446Z,29.21
2018-03-19T10:11:48.774Z,28.66
2018-03-19T10:14:20.634Z,28.89
2018-03-19T10:16:54.731Z,27.95
2018-03-19T10:19:27.842Z,27.77
2018-03-19T10:21:59.394Z,27.40
2018-03-19T10:24:31.762Z,27.27
2018-03-19T10:27:03.748Z,27.89
2018-03-19T10:29:40.432Z,26.83
2018-03-19T10:32:14.333Z,25.80
2018-03-19T10:34:48.068Z,26.64
2018-03-19T10:37:20.471Z,26.60
2018-03-19T10:40:04.241Z,26.75
2018-03-19T10:42:38.679Z,26.50
2018-03-19T10:45:14.288Z,26.69
2018-03-19T10:47:48.332Z,26.25
2018-03-19T10:50:21.242Z,26.48
2018-03-19T10:52:55.589Z,26.55
2018-03-19T10:55:29.086Z,26.40
2018-03-19T10:58:02.123Z,26.44
2018-03-19T11:00:37.649Z,27.05
2018-03-19T11:03:17.035Z,27.23
2018-03-19T11:05:51.977Z,26.19
2018-03-19T11:08:28.717Z,26.23
2018-03-19T11:11:02.513Z,26.06
2018-03-19T11:13:42.587Z,25.86
2018-03-19T11:16:19.636Z,25.66
2018-03-19T11:18:54.499Z,26.29
2018-03-19T11:21:28.815Z,26.43
2018-03-19T11:24:00.759Z,26.84
2018-03-19T11:26:32.994Z,26.38
2018-03-19T11:29:04.760Z,25.96
2018-03-19T11:31:36.538Z,25.17
2018-03-19T11:34:08.303Z,24.78
2018-03-19T11:36:39.803Z,24.78
2018-03-19T11:39:14.088Z,24.81
2018-03-19T11:41:47.479Z,25.71
2018-03-19T11:44:19.664Z,25.34
2018-03-19T11:46:52.534Z,25.52
2018-03-19T11:49:25.097Z,25.81
2018-03-19T11:51:57.048Z,25.56
2018-03-19T11:54:28.807Z,24.77
2018-03-19T11:57:01.471Z,24.93
2018-03-19T11:59:36.068Z,24.59
2018-03-19T12:02:08.270Z,25.60
2018-03-19T12:04:39.807Z,24.96
2018-03-19T12:07:11.478Z,25.42
2018-03-19T12:09:43.449Z,25.44
2018-03-19T12:12:19.508Z,25.32
2018-03-19T12:15:29.922Z,25.51
2018-03-19T12:18:02.045Z,25.99
2018-03-19T12:20:35.675Z,25.26
2018-03-19T12:23:07.778Z,26.28
2018-03-19T12:25:40.015Z,26.95
2018-03-19T12:28:11.053Z,26.83
2018-03-19T12:30:44.943Z,26.13
2018-03-19T12:33:18.757Z,25.82
2018-03-19T12:35:56.766Z,26.00
2018-03-19T12:38:36.349Z,25.77
2018-03-19T12:41:09.047Z,25.47
2018-03-19T12:43:43.487Z,25.67
2018-03-19T12:46:15.965Z,26.23
2018-03-19T12:48:50.238Z,25.93
2018-03-19T12:51:24.367Z,25.98
2018-03-19T12:53:56.701Z,26.08
2018-03-19T12:56:29.360Z,25.70
2018-03-19T12:59:04.884Z,26.26
2018-03-19T13:01:38.738Z,26.37
2018-03-19T13:04:16.302Z,26.59
2018-03-19T13:06:48.758Z,26.71
2018-03-19T13:09:23.718Z,26.45
2018-03-19T13:11:56.716Z,26.71
2018-03-19T13:14:31.921Z,26.71
2018-03-19T13:17:07.865Z,26.55
2018-03-19T13:19:39.988Z,26.49
2018-03-19T13:22:17.227Z,26.70
2018-03-19T13:24:55.888Z,26.06
2018-03-19T13:27:33.645Z,26.40
2018-03-19T13:30:15.893Z,26.30
2018-03-19T13:32:52.654Z,26.38
2018-03-19T13:35:28.089Z,26.45
2018-03-19T13:38:06.858Z,26.43
2018-03-19T13:40:42.161Z,26.96
2018-03-19T13:43:14.867Z,26.43
2018-03-19T13:45:48.495Z,26.43
2018-03-19T13:48:20.656Z,26.92
2018-03-19T13:51:31.589Z,27.26
2018-03-19T13:57:00.867Z,28.21
2018-03-19T13:59:33.201Z,28.39
2018-03-19T14:02:07.332Z,27.95
2018-03-19T14:04:39.720Z,28.27
2018-03-19T14:07:41.818Z,28.15
2018-03-19T14:10:16.468Z,28.55
2018-03-19T14:13:05.485Z,29.00
2018-03-19T14:15:38.904Z,29.03
2018-03-19T14:18:11.454Z,29.24
2018-03-19T14:20:44.525Z,29.28
2018-03-19T14:23:30.938Z,29.59
2018-03-19T14:28:55.481Z,29.26
2018-03-19T14:34:24.508Z,29.05
2018-03-19T14:37:05.107Z,28.62
2018-03-19T14:39:40.828Z,29.05
2018-03-19T14:42:19.999Z,29.07
2018-03-19T14:44:56.764Z,28.44
2018-03-19T14:47:29.794Z,28.51
2018-03-19T14:50:04.249Z,28.55
2018-03-19T14:52:36.138Z,28.54
2018-03-19T14:55:10.311Z,28.69
2018-03-19T14:57:44.903Z,28.90
2018-03-19T15:00:36.598Z,29.04
2018-03-19T15:03:09.594Z,29.21
2018-03-19T15:05:41.866Z,29.22
2018-03-19T15:08:13.864Z,29.80
2018-03-19T15:10:46.263Z,29.37
2018-03-19T15:13:17.556Z,30.09
2018-03-19T15:15:53.204Z,29.91
2018-03-19T15:18:29.244Z,30.92
2018-03-19T15:21:02.879Z,31.12
2018-03-19T15:23:35.035Z,31.04
2018-03-19T15:26:06.481Z,30.94
2018-03-19T15:28:38.618Z,31.13
2018-03-19T15:31:12.602Z,31.35
2018-03-19T15:33:45.176Z,31.24
2018-03-19T15:36:17.767Z,31.38
2018-03-19T15:38:49.736Z,31.51
2018-03-19T15:43:56.384Z,31.80
2018-03-19T15:46:28.446Z,32.13
2018-03-19T15:49:25.462Z,32.14
2018-03-19T15:51:57.955Z,31.24
2018-03-19T15:54:31.567Z,31.75
2018-03-19T15:57:09.399Z,32.23
2018-03-19T15:59:42.156Z,32.15
2018-03-19T16:02:13.506Z,32.31
2018-03-19T16:04:46.647Z,31.93
2018-03-19T16:07:19.346Z,31.94
2018-03-19T16:09:51.484Z,32.33
2018-03-19T16:12:31.272Z,32.23
2018-03-19T16:15:07.754Z,32.61
2018-03-19T16:17:41.398Z,32.52
2018-03-19T16:20:12.850Z,33.16
2018-03-19T16:22:44.647Z,32.63
2018-03-19T16:25:16.431Z,32.88
2018-03-19T16:28:08.835Z,32.57
2018-03-19T16:33:33.117Z,32.69
2018-03-19T16:36:04.886Z,32.37
2018-03-19T16:38:36.770Z,32.50
2018-03-19T16:41:07.664Z,32.58
2018-03-19T16:43:39.877Z,32.63
2018-03-19T16:46:13.210Z,32.63
2018-03-19T16:48:47.726Z,32.57
2018-03-19T16:51:25.564Z,32.77
2018-03-19T16:54:02.378Z,32.90
2018-03-19T16:56:36.331Z,32.73
2018-03-19T16:59:09.894Z,32.87
2018-03-19T17:01:44.786Z,32.66
2018-03-19T17:04:16.747Z,32.73
2018-03-19T17:06:51.395Z,32.66
2018-03-19T17:09:28.857Z,32.51
2018-03-19T17:12:13.760Z,32.68
2018-03-19T17:14:50.835Z,32.57
2018-03-19T17:17:24.965Z,32.76
2018-03-19T17:19:56.615Z,32.78
2018-03-19T17:22:31.209Z,32.98
2018-03-19T17:25:07.020Z,33.03
2018-03-19T17:27:39.751Z,32.98
2018-03-19T17:30:17.555Z,33.19
2018-03-19T17:32:52.784Z,33.04
2018-03-19T17:35:40.989Z,32.81
2018-03-19T17:38:15.779Z,33.20
2018-03-19T17:40:47.781Z,32.69
2018-03-19T17:43:24.310Z,32.69
2018-03-19T17:46:05.324Z,32.41
2018-03-19T17:48:40.949Z,32.78
2018-03-19T17:51:14.641Z,32.83
2018-03-19T17:53:46.585Z,32.53
2018-03-19T17:56:56.098Z,32.59
2018-03-19T17:59:28.006Z,33.02
2018-03-19T18:02:03.303Z,32.80
2018-03-19T18:04:37.855Z,32.85
2018-03-19T18:07:13.946Z,32.78
2018-03-19T18:09:46.412Z,33.03
2018-03-19T18:12:30.047Z,33.03
2018-03-19T18:15:17.229Z,33.12
2018-03-19T18:17:50.747Z,33.33
2018-03-19T18:20:25.600Z,33.39
2018-03-19T18:22:59.109Z,33.12
2018-03-19T18:25:35.101Z,33.22
2018-03-19T18:28:10.147Z,33.38
2018-03-19T18:30:48.004Z,33.37
2018-03-19T18:33:21.077Z,33.32
2018-03-19T18:35:53.533Z,33.54
2018-03-19T18:38:25.187Z,33.76
2018-03-19T18:40:57.419Z,33.59
2018-03-19T18:43:37.098Z,33.68
2018-03-19T18:46:11.277Z,33.70
2018-03-19T18:48:44.911Z,34.03
2018-03-19T18:51:17.064Z,33.85
2018-03-19T18:53:48.727Z,34.18
2018-03-19T18:56:19.887Z,34.03
2018-03-19T19:01:20.635Z,34.35
2018-03-19T19:04:00.892Z,34.27
2018-03-19T19:06:32.752Z,33.81
2018-03-19T19:09:26.142Z,33.87
2018-03-19T19:11:57.261Z,33.75
2018-03-19T19:14:28.740Z,33.33
2018-03-19T19:17:10.087Z,33.14
2018-03-19T19:19:40.991Z,32.86
2018-03-19T19:22:14.012Z,33.21
2018-03-19T19:24:47.798Z,33.14
2018-03-19T19:27:28.416Z,32.89
2018-03-19T19:30:00.163Z,32.82
2018-03-19T19:32:38.691Z,32.28
2018-03-19T19:35:09.634Z,32.02
2018-03-19T19:37:41.451Z,32.04
2018-03-19T19:40:18.115Z,31.79
2018-03-19T19:42:50.126Z,31.56
2018-03-19T19:45:23.831Z,31.16
2018-03-19T19:47:55.206Z,30.85
2018-03-19T19:50:29.337Z,30.83
2018-03-19T19:53:07.509Z,30.48
2018-03-19T19:55:40.204Z,30.31
2018-03-19T19:58:12.627Z,30.34
2018-03-19T20:00:44.023Z,30.11
2018-03-19T20:06:01.344Z,30.09
2018-03-19T20:08:32.885Z,29.97
2018-03-19T20:11:04.809Z,29.65
2018-03-19T20:13:36.224Z,29.69
2018-03-19T20:16:08.954Z,29.54
2018-03-19T20:18:40.808Z,29.63
2018-03-19T20:21:12.765Z,29.66
2018-03-19T20:23:58.406Z,29.61
2018-03-19T20:26:29.373Z,29.38
2018-03-19T20:29:03.526Z,29.57
2018-03-19T20:31:35.314Z,29.63
2018-03-19T20:34:09.077Z,29.96
2018-03-19T20:36:40.677Z,29.86
2018-03-19T20:39:11.661Z,29.84
2018-03-19T20:41:43.084Z,30.22
2018-03-19T20:44:14.288Z,29.90
2018-03-19T20:49:11.623Z,29.69
2018-03-19T20:51:43.965Z,29.60
2018-03-19T20:54:16.645Z,30.00
2018-03-19T20:56:47.733Z,29.66
2018-03-19T20:59:21.056Z,29.67
2018-03-19T21:01:53.862Z,29.60
2018-03-19T21:04:25.087Z,29.70
2018-03-19T21:07:04.034Z,29.57
2018-03-19T21:09:36.017Z,29.81
2018-03-19T21:12:07.099Z,29.87
2018-03-19T21:14:38.766Z,29.71
2018-03-19T21:17:11.334Z,29.67
2018-03-19T21:19:42.543Z,29.63
2018-03-19T21:22:14.129Z,29.61
2018-03-19T21:24:45.494Z,29.63
2018-03-19T21:27:17.738Z,29.84
2018-03-19T21:29:49.090Z,29.96
2018-03-19T21:32:31.190Z,29.87
2018-03-19T21:35:07.460Z,29.90
2018-03-19T21:37:42.301Z,30.00
2018-03-19T21:40:14.660Z,30.12
2018-03-19T21:42:47.203Z,30.01
2018-03-19T21:45:20.558Z,30.09
2018-03-19T21:47:52.441Z,30.14
2018-03-19T21:50:24.996Z,30.15
2018-03-19T21:52:57.173Z,30.09
2018-03-19T21:55:36.612Z,30.21
2018-03-19T21:58:09.937Z,29.84
2018-03-19T22:00:41.398Z,30.32
2018-03-19T22:03:12.952Z,30.18
2018-03-19T22:05:44.804Z,30.33
2018-03-19T22:08:17.137Z,30.42
2018-03-19T22:10:48.214Z,30.55
2018-03-19T22:13:20.940Z,30.98
2018-03-19T22:15:52.850Z,31.04
2018-03-19T22:18:25.086Z,31.15
2018-03-19T22:20:56.654Z,31.43
2018-03-19T22:23:30.114Z,31.71
2018-03-19T22:26:01.780Z,32.14
2018-03-19T22:28:34.446Z,32.45
2018-03-19T22:31:14.089Z,32.19
2018-03-19T22:33:46.025Z,32.20
2018-03-19T22:36:17.322Z,32.56
2018-03-19T22:38:49.531Z,32.58
2018-03-19T22:44:17.315Z,32.74
2018-03-19T22:46:49.120Z,32.77
2018-03-19T22:49:22.346Z,33.19
2018-03-19T22:51:54.388Z,33.49
2018-03-19T22:54:26.303Z,33.71
2018-03-19T22:56:57.390Z,34.03
2018-03-19T22:59:28.446Z,33.93
2018-03-19T23:02:00.092Z,34.06
2018-03-19T23:04:39.733Z,34.05
2018-03-19T23:07:11.561Z,33.95
2018-03-19T23:09:42.569Z,33.86
2018-03-19T23:12:13.508Z,33.81
2018-03-19T23:14:46.063Z,33.84
2018-03-19T23:17:17.731Z,33.76
2018-03-19T23:19:48.828Z,33.83
2018-03-19T23:22:23.133Z,33.87
2018-03-19T23:24:53.964Z,34.02
2018-03-19T23:27:25.041Z,34.04
2018-03-19T23:29:57.444Z,33.98
2018-03-19T23:32:35.876Z,34.09
2018-03-19T23:35:07.481Z,34.26
2018-03-19T23:37:38.562Z,34.54
2018-03-19T23:40:09.642Z,34.62
2018-03-19T23:42:40.863Z,34.67
2018-03-19T23:45:15.105Z,34.70
2018-03-19T23:47:45.948Z,34.67
2018-03-19T23:50:18.294Z,34.60
2018-03-19T23:52:49.618Z,34.71
2018-03-19T23:55:20.755Z,34.52
2018-03-19T23:57:52.018Z,34.76
